Time;durP1;ratioP1;P1;durP2;ratioP2;P2;SDS_P1;SDS_P2;PMS_P1;PMS_P2;Temp;Humidity;BMP_temperature;BMP_pressure;BME280_temperature;BME280_humidity;BME280_pressure;Samples;Min_cycle;Max_cycle;Signal;HPM_P1;HPM_P2
2024/03/31 00:00:09;;;;;;;75.07;13.50;;;14.50;99.90;;;;;;4936781;29;20035;-77
2024/03/31 00:02:36;;;;;;;86.05;11.82;;;14.40;99.90;;;;;;4953958;29;20025;-77
2024/03/31 00:05:03;;;;;;;61.88;11.45;;;14.30;99.90;;;;;;4936367;29;20035;-77
2024/03/31 00:07:29;;;;;;;68.15;10.85;;;14.30;99.90;;;;;;4936545;29;20054;-77
2024/03/31 00:09:54;;;;;;;55.80;10.38;;;14.20;99.90;;;;;;4951736;29;20058;-77
2024/03/31 00:12:20;;;;;;;63.28;11.95;;;14.20;99.90;;;;;;4952392;29;20031;-77
2024/03/31 00:14:46;;;;;;;65.43;10.50;;;14.20;99.90;;;;;;4944160;29;20388;-77
2024/03/31 00:17:11;;;;;;;64.65;11.00;;;14.20;99.90;;;;;;4948510;29;20038;-76
2024/03/31 00:19:37;;;;;;;56.65;11.55;;;14.10;99.90;;;;;;4948810;28;20027;-76
2024/03/31 00:22:04;;;;;;;71.20;11.75;;;14.10;99.90;;;;;;4949565;28;20499;-76
2024/03/31 00:24:30;;;;;;;72.88;11.30;;;14.00;99.90;;;;;;4949410;29;20020;-76
2024/03/31 00:26:56;;;;;;;71.53;12.45;;;13.90;99.90;;;;;;4947041;29;20038;-76
2024/03/31 00:29:22;;;;;;;67.05;12.50;;;14.00;99.90;;;;;;4949593;29;20057;-76
2024/03/31 00:31:47;;;;;;;69.10;10.70;;;13.90;99.90;;;;;;4948818;29;20061;-76
2024/03/31 00:34:14;;;;;;;62.90;10.70;;;13.90;99.90;;;;;;4950602;29;20077;-77
2024/03/31 00:36:40;;;;;;;60.58;9.65;;;13.90;99.90;;;;;;4953387;29;20188;-77
2024/03/31 00:39:07;;;;;;;71.60;11.93;;;13.90;99.90;;;;;;4930505;29;20439;-77
2024/03/31 00:41:33;;;;;;;62.67;10.93;;;13.90;99.90;;;;;;4948359;29;20402;-76
2024/03/31 00:43:59;;;;;;;59.13;10.52;;;13.90;99.90;;;;;;4948716;29;20452;-76
2024/03/31 00:46:25;;;;;;;60.65;11.20;;;13.90;99.90;;;;;;4947191;29;20118;-77
2024/03/31 00:48:51;;;;;;;49.78;10.00;;;13.90;99.90;;;;;;4948817;29;20111;-77
2024/03/31 00:51:17;;;;;;;59.47;10.32;;;13.90;99.90;;;;;;4947305;29;20368;-77
2024/03/31 00:53:43;;;;;;;67.68;10.88;;;13.80;99.90;;;;;;4949311;29;20026;-77
2024/03/31 00:56:10;;;;;;;57.33;10.95;;;13.80;99.90;;;;;;4948463;29;20110;-77
2024/03/31 00:58:36;;;;;;;49.00;9.60;;;13.80;99.90;;;;;;4950446;29;20106;-76
2024/03/31 01:01:03;;;;;;;60.38;10.30;;;13.70;99.90;;;;;;4951911;29;20038;-77
2024/03/31 01:03:29;;;;;;;63.05;11.80;;;13.70;99.90;;;;;;4953272;29;20038;-77
2024/03/31 01:06:05;;;;;;;72.57;10.07;;;13.70;99.90;;;;;;4953081;28;20039;-77
2024/03/31 01:08:30;;;;;;;59.97;9.93;;;13.60;99.90;;;;;;4949707;28;20395;-77
2024/03/31 01:10:56;;;;;;;51.50;8.38;;;13.60;99.90;;;;;;4952977;29;20032;-77
2024/03/31 01:13:25;;;;;;;47.13;10.07;;;13.60;99.90;;;;;;4949407;29;20027;-77
2024/03/31 01:15:51;;;;;;;56.20;10.98;;;13.60;99.90;;;;;;4946037;28;20023;-77
2024/03/31 01:18:17;;;;;;;49.92;8.70;;;13.60;99.90;;;;;;4955351;28;20058;-77
2024/03/31 01:20:43;;;;;;;45.30;8.63;;;13.60;99.90;;;;;;4939710;29;20470;-77
2024/03/31 01:23:11;;;;;;;55.70;8.85;;;13.50;99.90;;;;;;4956884;29;20027;-77
2024/03/31 01:25:37;;;;;;;55.47;8.73;;;13.50;99.90;;;;;;4954757;29;20066;-77
2024/03/31 01:28:03;;;;;;;53.75;9.70;;;13.40;99.90;;;;;;4956723;29;20450;-77
2024/03/31 01:30:29;;;;;;;46.20;7.93;;;13.40;99.90;;;;;;4956392;29;20120;-77
2024/03/31 01:32:58;;;;;;;39.22;7.95;;;13.40;99.90;;;;;;4955320;29;20106;-77
2024/03/31 01:35:24;;;;;;;53.45;8.57;;;13.40;99.90;;;;;;4956628;28;20107;-77
2024/03/31 01:37:50;;;;;;;44.97;8.23;;;13.40;99.90;;;;;;4971084;28;20110;-77
2024/03/31 01:40:19;;;;;;;51.70;8.13;;;13.30;99.90;;;;;;4956621;29;20028;-77
2024/03/31 01:42:47;;;;;;;36.20;7.93;;;13.30;99.90;;;;;;4956492;29;20034;-77
2024/03/31 01:45:22;;;;;;;52.78;8.77;;;13.30;99.90;;;;;;4946466;29;20020;-77
2024/03/31 01:47:47;;;;;;;48.08;7.68;;;13.30;99.90;;;;;;4951678;29;20031;-76
2024/03/31 01:50:16;;;;;;;40.00;7.45;;;13.20;99.90;;;;;;4952623;29;20364;-76
2024/03/31 01:52:42;;;;;;;44.22;8.93;;;13.20;99.90;;;;;;4951891;29;20618;-77
2024/03/31 01:55:08;;;;;;;42.28;7.55;;;13.20;99.90;;;;;;4951870;28;20106;-76
2024/03/31 01:57:33;;;;;;;32.80;7.30;;;13.20;99.90;;;;;;4951990;28;20530;-77
2024/03/31 01:59:59;;;;;;;38.65;7.63;;;13.20;99.90;;;;;;4951713;28;20027;-77
2024/03/31 02:02:25;;;;;;;40.50;8.02;;;13.20;99.90;;;;;;4952418;29;20031;-77
2024/03/31 02:04:50;;;;;;;35.50;6.97;;;13.20;99.90;;;;;;4952042;28;20024;-77
2024/03/31 02:07:16;;;;;;;34.13;6.60;;;13.20;99.90;;;;;;4952074;29;20065;-77
2024/03/31 02:09:42;;;;;;;36.50;6.35;;;13.20;99.90;;;;;;4944678;29;20027;-77
2024/03/31 02:12:07;;;;;;;36.88;6.95;;;13.20;99.90;;;;;;4949110;28;20384;-77
2024/03/31 02:14:33;;;;;;;31.25;6.72;;;13.20;99.90;;;;;;4953883;29;20027;-77
2024/03/31 02:16:59;;;;;;;36.25;6.63;;;13.20;99.90;;;;;;4938552;29;20447;-77
2024/03/31 02:19:24;;;;;;;31.20;7.50;;;13.10;99.90;;;;;;4950019;29;20027;-77
2024/03/31 02:21:51;;;;;;;38.53;7.78;;;13.10;99.90;;;;;;4946935;29;20502;-77
2024/03/31 02:24:17;;;;;;;27.52;6.97;;;13.10;99.90;;;;;;4949316;28;20394;-77
2024/03/31 02:26:43;;;;;;;34.88;7.22;;;13.10;99.90;;;;;;4942002;29;20099;-77
2024/03/31 02:29:10;;;;;;;29.27;5.75;;;13.10;99.90;;;;;;4946327;28;20115;-77
2024/03/31 02:31:36;;;;;;;77.75;42.80;;;13.10;99.90;;;;;;4953460;29;20531;-76
2024/03/31 02:34:02;;;;;;;176.75;131.07;;;13.10;99.90;;;;;;4954459;28;20844;-76
2024/03/31 02:36:28;;;;;;;54.40;27.95;;;13.20;99.90;;;;;;4952630;29;20357;-77
2024/03/31 02:38:54;;;;;;;29.17;7.78;;;13.20;99.90;;;;;;4954171;29;20090;-76
2024/03/31 02:41:20;;;;;;;35.60;6.57;;;13.20;99.90;;;;;;4952946;29;20066;-76
2024/03/31 02:43:45;;;;;;;37.90;6.70;;;13.10;99.90;;;;;;4952624;29;20085;-77
2024/03/31 02:46:11;;;;;;;35.88;6.20;;;13.00;99.90;;;;;;4951664;29;20024;-77
2024/03/31 02:48:37;;;;;;;33.08;5.30;;;13.00;99.90;;;;;;4950793;29;20027;-77
2024/03/31 02:51:02;;;;;;;27.92;5.50;;;13.00;99.90;;;;;;4951340;29;20089;-77
2024/03/31 02:53:28;;;;;;;36.25;6.60;;;13.00;99.90;;;;;;4950596;29;20065;-77
2024/03/31 02:55:54;;;;;;;24.27;4.97;;;13.00;99.90;;;;;;4950668;29;20483;-77
2024/03/31 02:58:19;;;;;;;30.13;6.07;;;13.00;99.90;;;;;;4953118;29;20027;-77
2024/03/31 03:00:45;;;;;;;31.17;5.63;;;13.00;99.90;;;;;;4955105;29;20031;-77
2024/03/31 03:03:11;;;;;;;28.13;5.68;;;13.00;99.90;;;;;;4955214;29;20055;-77
2024/03/31 03:05:36;;;;;;;28.95;4.68;;;12.90;99.90;;;;;;4955048;29;20491;-77
2024/03/31 03:08:02;;;;;;;29.85;5.70;;;12.90;99.90;;;;;;4955032;29;20110;-77
2024/03/31 03:10:28;;;;;;;23.70;5.35;;;12.90;99.90;;;;;;4953520;29;20031;-77
2024/03/31 03:12:54;;;;;;;28.35;5.55;;;12.90;99.90;;;;;;4954977;29;20034;-77
2024/03/31 03:15:20;;;;;;;30.25;5.95;;;12.90;99.90;;;;;;4954920;29;20510;-77
2024/03/31 03:17:47;;;;;;;33.95;5.95;;;12.90;99.90;;;;;;4954200;29;20027;-77
2024/03/31 03:20:13;;;;;;;27.48;5.40;;;12.90;99.90;;;;;;4954926;29;20028;-77
2024/03/31 03:22:39;;;;;;;24.02;5.25;;;12.90;99.90;;;;;;4954929;28;20070;-78
2024/03/31 03:25:05;;;;;;;26.00;5.38;;;12.90;99.90;;;;;;4953917;29;20034;-77
2024/03/31 03:27:30;;;;;;;34.05;6.45;;;12.90;99.90;;;;;;4954542;28;20027;-77
2024/03/31 03:29:56;;;;;;;22.83;5.97;;;13.00;99.90;;;;;;4954438;29;20044;-77
2024/03/31 03:32:22;;;;;;;30.13;5.55;;;12.90;99.90;;;;;;4929911;29;20607;-77
2024/03/31 03:34:50;;;;;;;27.55;5.35;;;12.80;99.90;;;;;;4950171;29;20031;-77
2024/03/31 03:37:16;;;;;;;26.65;5.50;;;12.80;99.90;;;;;;4948416;29;20380;-77
2024/03/31 03:39:45;;;;;;;32.05;6.18;;;12.90;99.90;;;;;;4933625;28;20043;-77
2024/03/31 03:42:11;;;;;;;26.17;5.22;;;12.80;99.90;;;;;;4950969;29;20031;-77
2024/03/31 03:44:37;;;;;;;32.03;5.60;;;12.90;99.90;;;;;;4950821;28;20031;-77
2024/03/31 03:47:02;;;;;;;32.08;5.60;;;12.80;99.90;;;;;;4951653;28;20035;-77
2024/03/31 03:49:28;;;;;;;23.98;5.43;;;12.90;99.90;;;;;;4948695;29;20031;-77
2024/03/31 03:51:54;;;;;;;28.83;6.22;;;12.90;99.90;;;;;;4950064;29;20065;-77
2024/03/31 03:54:20;;;;;;;24.08;4.72;;;12.90;99.90;;;;;;4950398;29;20466;-77
2024/03/31 03:56:46;;;;;;;30.10;6.78;;;12.90;99.90;;;;;;4949821;29;20031;-77
2024/03/31 03:59:12;;;;;;;36.72;6.75;;;12.90;99.90;;;;;;4950412;29;20078;-77
2024/03/31 04:01:38;;;;;;;28.17;6.43;;;12.80;99.90;;;;;;4948386;29;20116;-77
2024/03/31 04:04:04;;;;;;;33.17;5.82;;;12.80;99.90;;;;;;4949904;28;20023;-77
2024/03/31 04:06:30;;;;;;;24.90;6.60;;;12.90;99.90;;;;;;4949915;28;20125;-77
2024/03/31 04:08:56;;;;;;;35.95;6.43;;;12.80;99.90;;;;;;4949542;29;20027;-77
2024/03/31 04:11:22;;;;;;;33.42;6.35;;;12.80;99.90;;;;;;4949763;29;20027;-77
2024/03/31 04:13:49;;;;;;;28.50;6.15;;;12.80;99.90;;;;;;4932541;29;20305;-77
2024/03/31 04:16:15;;;;;;;34.42;6.20;;;12.90;99.90;;;;;;4949283;29;20023;-77
2024/03/31 04:18:41;;;;;;;34.58;6.38;;;12.90;99.90;;;;;;4950108;29;20033;-77
2024/03/31 04:21:10;;;;;;;35.40;5.63;;;12.90;99.90;;;;;;4947626;29;20046;-77
2024/03/31 04:23:39;;;;;;;27.77;6.28;;;12.80;99.90;;;;;;4948034;29;20479;-78
2024/03/31 04:26:05;;;;;;;27.17;5.80;;;12.80;99.90;;;;;;4951604;29;20078;-77
2024/03/31 04:28:31;;;;;;;25.40;5.13;;;12.80;99.90;;;;;;4953804;29;20031;-77
2024/03/31 04:31:01;;;;;;;34.33;6.18;;;12.90;99.90;;;;;;4953488;29;20051;-76
2024/03/31 04:33:26;;;;;;;30.58;5.70;;;12.90;99.90;;;;;;4953622;29;20023;-76
2024/03/31 04:35:52;;;;;;;30.42;5.65;;;12.80;99.90;;;;;;4953260;29;20058;-77
2024/03/31 04:38:18;;;;;;;36.72;6.43;;;12.90;99.90;;;;;;4936324;29;20031;-76
2024/03/31 04:40:56;;;;;;;37.30;6.38;;;12.90;99.90;;;;;;4953545;29;20035;-76
2024/03/31 04:43:24;;;;;;;26.95;5.57;;;12.90;99.90;;;;;;4953500;28;20031;-76
2024/03/31 04:45:59;;;;;;;29.42;5.80;;;12.90;99.90;;;;;;4951981;29;20028;-76
2024/03/31 04:48:25;;;;;;;34.10;6.68;;;12.90;99.90;;;;;;4950130;29;20031;-76
2024/03/31 04:50:53;;;;;;;31.73;6.45;;;12.90;99.90;;;;;;4953396;29;20037;-76
2024/03/31 04:53:19;;;;;;;32.88;6.95;;;12.90;99.90;;;;;;4948227;29;20589;-76
2024/03/31 04:55:45;;;;;;;32.53;6.00;;;12.90;99.90;;;;;;4951909;28;20023;-76
2024/03/31 04:58:10;;;;;;;33.33;5.18;;;12.90;99.90;;;;;;4953258;29;20028;-76
2024/03/31 05:00:36;;;;;;;35.60;6.57;;;12.90;99.90;;;;;;4953306;28;20031;-77
2024/03/31 05:03:02;;;;;;;27.40;6.95;;;12.90;99.90;;;;;;4953276;29;20479;-76
2024/03/31 05:05:27;;;;;;;31.33;5.80;;;12.90;99.90;;;;;;4953248;29;20050;-76
2024/03/31 05:07:53;;;;;;;32.88;6.40;;;13.00;99.90;;;;;;4953096;28;20364;-76
2024/03/31 05:10:19;;;;;;;37.67;7.07;;;12.90;99.90;;;;;;4934314;29;20035;-76
2024/03/31 05:12:47;;;;;;;41.03;5.88;;;12.90;99.90;;;;;;4953206;29;20015;-76
2024/03/31 05:15:13;;;;;;;27.15;5.90;;;12.90;99.90;;;;;;4935975;29;20027;-76
2024/03/31 05:17:39;;;;;;;45.67;6.45;;;12.90;99.90;;;;;;4951711;28;20419;-76
2024/03/31 05:20:05;;;;;;;27.42;6.07;;;12.90;99.90;;;;;;4953181;28;20027;-76
2024/03/31 05:22:31;;;;;;;35.90;6.03;;;12.90;99.90;;;;;;4953089;29;20020;-76
2024/03/31 05:24:57;;;;;;;39.13;6.97;;;12.90;99.90;;;;;;4944608;29;20381;-76
2024/03/31 05:27:25;;;;;;;42.90;7.07;;;12.90;99.90;;;;;;4945127;29;20027;-76
2024/03/31 05:29:51;;;;;;;32.03;6.57;;;12.90;99.90;;;;;;4942711;29;20079;-76
2024/03/31 05:32:17;;;;;;;27.00;6.35;;;12.80;99.90;;;;;;4949115;29;20118;-76
2024/03/31 05:34:43;;;;;;;42.60;6.50;;;12.80;99.90;;;;;;4948741;29;20816;-76
2024/03/31 05:37:08;;;;;;;32.10;6.53;;;12.80;99.90;;;;;;4946808;29;20027;-76
2024/03/31 05:39:34;;;;;;;33.83;6.20;;;12.80;99.90;;;;;;4949119;29;20483;-76
2024/03/31 05:42:00;;;;;;;43.47;5.85;;;12.90;99.90;;;;;;4930999;29;20027;-76
2024/03/31 05:44:25;;;;;;;26.90;6.20;;;12.80;99.90;;;;;;4948661;28;20122;-76
2024/03/31 05:46:51;;;;;;;29.60;5.38;;;12.80;99.90;;;;;;4951078;29;20027;-76
2024/03/31 05:49:19;;;;;;;42.88;7.10;;;12.80;99.90;;;;;;4952838;29;20027;-76
2024/03/31 05:51:45;;;;;;;34.95;7.28;;;12.70;99.90;;;;;;4951301;29;20031;-77
2024/03/31 05:54:12;;;;;;;41.35;6.65;;;12.80;99.90;;;;;;4952776;28;20015;-76
2024/03/31 05:56:38;;;;;;;37.83;5.93;;;12.80;99.90;;;;;;4952746;29;20058;-76
2024/03/31 05:59:03;;;;;;;30.98;5.43;;;12.90;99.90;;;;;;4951330;28;20059;-77
2024/03/31 06:01:29;;;;;;;43.67;7.57;;;12.90;99.90;;;;;;4952832;29;20086;-76
2024/03/31 06:03:55;;;;;;;40.50;6.95;;;13.00;99.90;;;;;;4953068;28;20057;-76
2024/03/31 06:06:20;;;;;;;45.88;7.65;;;13.00;99.90;;;;;;4956100;29;20102;-76
2024/03/31 06:08:46;;;;;;;44.80;7.05;;;13.00;99.90;;;;;;4956125;29;20141;-76
2024/03/31 06:11:15;;;;;;;36.58;6.18;;;13.00;99.90;;;;;;4956057;29;20448;-76
2024/03/31 06:13:41;;;;;;;37.50;7.07;;;13.00;99.90;;;;;;4954844;28;20093;-77
2024/03/31 06:16:06;;;;;;;47.38;7.38;;;13.00;99.90;;;;;;4955797;29;20479;-76
2024/03/31 06:18:32;;;;;;;37.05;7.15;;;13.10;99.90;;;;;;4956236;29;20031;-76
2024/03/31 06:21:04;;;;;;;39.55;7.65;;;13.00;99.90;;;;;;4956004;29;20094;-77
2024/03/31 06:23:29;;;;;;;36.63;6.80;;;13.10;99.90;;;;;;4952888;29;20023;-77
2024/03/31 06:25:56;;;;;;;38.53;6.80;;;13.10;99.90;;;;;;4955780;29;20031;-77
2024/03/31 06:28:22;;;;;;;35.30;6.15;;;13.20;99.90;;;;;;4955772;29;20031;-76
2024/03/31 06:30:47;;;;;;;35.75;6.85;;;13.20;99.90;;;;;;4955602;29;20526;-76
2024/03/31 06:33:14;;;;;;;36.33;6.97;;;13.20;99.90;;;;;;4955704;29;20570;-77
2024/03/31 06:35:40;;;;;;;38.58;6.35;;;13.30;99.90;;;;;;4955503;29;20036;-77
2024/03/31 06:38:06;;;;;;;36.13;6.43;;;13.30;99.90;;;;;;4938395;29;20082;-77
2024/03/31 06:40:33;;;;;;;34.47;6.00;;;13.30;99.90;;;;;;4955591;29;20039;-77
2024/03/31 06:42:59;;;;;;;35.47;5.80;;;13.40;99.90;;;;;;4955331;29;20031;-77
2024/03/31 06:45:26;;;;;;;32.58;6.50;;;13.40;99.90;;;;;;4954136;29;20042;-77
2024/03/31 06:47:52;;;;;;;30.65;5.55;;;13.50;99.90;;;;;;4954008;29;20028;-77
2024/03/31 06:50:17;;;;;;;42.05;5.78;;;13.60;99.90;;;;;;4954006;29;20045;-77
2024/03/31 06:52:43;;;;;;;38.83;6.55;;;13.70;99.90;;;;;;4953787;29;20435;-77
2024/03/31 06:55:09;;;;;;;44.90;6.20;;;13.70;99.90;;;;;;4955307;29;20118;-77
2024/03/31 06:57:34;;;;;;;32.92;6.47;;;13.80;99.90;;;;;;4953658;29;20035;-77
2024/03/31 07:00:00;;;;;;;42.15;7.82;;;13.90;99.90;;;;;;4955209;28;20106;-77
2024/03/31 07:02:25;;;;;;;50.60;8.20;;;14.10;99.90;;;;;;4955208;29;20471;-77
2024/03/31 07:04:51;;;;;;;57.50;9.65;;;14.10;99.90;;;;;;4955126;29;20480;-77
2024/03/31 07:07:17;;;;;;;45.33;7.57;;;14.20;99.90;;;;;;4953588;29;20023;-77
2024/03/31 07:09:43;;;;;;;43.70;7.75;;;14.30;99.90;;;;;;4955046;29;20027;-77
2024/03/31 07:12:09;;;;;;;46.83;8.70;;;14.30;99.90;;;;;;4953545;29;20039;-77
2024/03/31 07:14:36;;;;;;;59.55;9.15;;;14.30;99.90;;;;;;4952979;28;20082;-77
2024/03/31 07:17:01;;;;;;;52.33;9.02;;;14.40;99.90;;;;;;4954554;28;20019;-77
2024/03/31 07:19:27;;;;;;;53.13;9.48;;;14.40;99.90;;;;;;4953289;29;20034;-76
2024/03/31 07:21:53;;;;;;;55.33;9.13;;;14.40;99.90;;;;;;4954945;29;20059;-77
2024/03/31 07:24:18;;;;;;;62.53;9.63;;;14.50;99.90;;;;;;4954782;29;20043;-77
2024/03/31 07:26:44;;;;;;;44.45;9.00;;;14.50;99.90;;;;;;4954526;28;20110;-76
2024/03/31 07:29:10;;;;;;;37.67;8.65;;;14.50;99.90;;;;;;4954505;29;20119;-77
2024/03/31 07:31:35;;;;;;;54.33;9.70;;;14.50;99.90;;;;;;4954505;29;20035;-77
2024/03/31 07:34:03;;;;;;;73.05;11.20;;;14.60;99.90;;;;;;4953073;29;20031;-77
2024/03/31 07:36:32;;;;;;;56.90;8.90;;;14.70;99.90;;;;;;4953025;29;20403;-77
2024/03/31 07:38:58;;;;;;;44.78;7.88;;;14.70;99.90;;;;;;4954672;28;20054;-76
2024/03/31 07:41:23;;;;;;;48.47;8.52;;;14.80;99.90;;;;;;4954340;29;20066;-77
2024/03/31 07:43:49;;;;;;;55.00;8.85;;;14.90;99.90;;;;;;4946708;29;20031;-77
2024/03/31 07:46:15;;;;;;;43.05;6.55;;;14.90;99.90;;;;;;4949463;29;20027;-77
2024/03/31 07:48:41;;;;;;;47.92;7.60;;;14.90;99.90;;;;;;4950195;29;20027;-76
2024/03/31 07:51:06;;;;;;;71.65;11.18;;;15.00;99.90;;;;;;4949530;28;20027;-76
2024/03/31 07:53:32;;;;;;;66.90;10.18;;;15.00;99.90;;;;;;4950474;29;20066;-76
2024/03/31 07:56:01;;;;;;;66.20;9.00;;;15.00;99.90;;;;;;4949864;29;20034;-76
2024/03/31 07:58:27;;;;;;;49.78;8.90;;;15.00;99.90;;;;;;4947820;29;20024;-76
2024/03/31 08:00:56;;;;;;;62.72;9.27;;;15.00;99.90;;;;;;4950109;29;20027;-76
2024/03/31 08:03:22;;;;;;;63.97;10.25;;;15.00;99.90;;;;;;4950632;29;20088;-77
2024/03/31 08:05:48;;;;;;;48.55;9.75;;;15.00;99.90;;;;;;4953915;29;20070;-76
2024/03/31 08:08:14;;;;;;;66.68;11.05;;;15.00;99.90;;;;;;4953745;29;20054;-76
2024/03/31 08:10:44;;;;;;;66.85;10.80;;;15.10;99.90;;;;;;4936576;29;20497;-76
2024/03/31 08:13:10;;;;;;;72.35;11.50;;;15.10;99.90;;;;;;4953899;29;20495;-76
2024/03/31 08:15:37;;;;;;;67.45;10.13;;;15.10;99.90;;;;;;4953726;29;20372;-76
2024/03/31 08:18:02;;;;;;;62.25;10.27;;;15.10;99.90;;;;;;4952447;29;20052;-76
2024/03/31 08:20:29;;;;;;;68.07;12.32;;;15.10;99.90;;;;;;4953745;29;20070;-76
2024/03/31 08:22:55;;;;;;;70.10;12.15;;;15.10;99.90;;;;;;4953702;29;20082;-76
2024/03/31 08:25:20;;;;;;;75.03;11.48;;;15.10;99.90;;;;;;4948590;29;20032;-76
2024/03/31 08:27:46;;;;;;;60.65;11.93;;;15.10;99.90;;;;;;4953590;28;20109;-76
2024/03/31 08:30:12;;;;;;;84.68;11.65;;;15.10;99.90;;;;;;4952700;29;20051;-76
2024/03/31 08:32:37;;;;;;;85.60;11.75;;;15.10;99.90;;;;;;4953429;29;20026;-76
2024/03/31 08:35:03;;;;;;;79.30;11.13;;;15.10;99.90;;;;;;4953566;29;20023;-76
2024/03/31 08:37:29;;;;;;;70.78;11.88;;;15.10;99.90;;;;;;4953178;29;20491;-76
2024/03/31 08:39:55;;;;;;;81.15;13.10;;;15.10;99.90;;;;;;4953583;29;20035;-76
2024/03/31 08:42:26;;;;;;;65.00;10.75;;;15.10;99.90;;;;;;4953517;29;20027;-76
2024/03/31 08:44:54;;;;;;;78.03;12.25;;;15.10;99.90;;;;;;4952521;29;20027;-76
2024/03/31 08:47:27;;;;;;;76.30;11.45;;;15.00;99.90;;;;;;4953311;29;20561;-76
2024/03/31 08:49:58;;;;;;;82.60;13.00;;;15.10;99.90;;;;;;4947907;29;20134;-76
2024/03/31 08:52:27;;;;;;;77.88;11.73;;;15.00;99.90;;;;;;4949620;29;20514;-76
2024/03/31 08:55:00;;;;;;;66.45;11.40;;;15.10;99.90;;;;;;4947946;29;20447;-76
2024/03/31 08:57:26;;;;;;;89.15;11.43;;;15.10;99.90;;;;;;4944738;29;20035;-76
2024/03/31 08:59:51;;;;;;;89.70;13.45;;;15.10;99.90;;;;;;4949000;29;20020;-76
2024/03/31 09:02:22;;;;;;;101.20;15.70;;;15.10;99.90;;;;;;4949634;29;20424;-76
2024/03/31 09:04:48;;;;;;;89.30;14.48;;;15.20;99.90;;;;;;4948467;29;20027;-76
2024/03/31 09:07:13;;;;;;;90.13;14.90;;;15.20;99.90;;;;;;4948729;29;20034;-76
2024/03/31 09:09:43;;;;;;;89.88;14.82;;;15.30;99.90;;;;;;4949022;29;20070;-76
2024/03/31 09:12:09;;;;;;;101.93;15.25;;;15.40;99.90;;;;;;4941729;28;20835;-76
2024/03/31 09:14:39;;;;;;;103.93;25.02;;;15.40;99.90;;;;;;4945882;29;20035;-76
2024/03/31 09:17:11;;;;;;;104.88;17.65;;;15.50;99.90;;;;;;4947940;29;20165;-76
2024/03/31 09:19:38;;;;;;;77.32;15.90;;;15.60;99.90;;;;;;4948730;29;20023;-76
2024/03/31 09:22:04;;;;;;;97.10;16.15;;;15.60;99.90;;;;;;4949147;29;20090;-76
2024/03/31 09:24:30;;;;;;;97.75;15.88;;;15.70;99.90;;;;;;4948529;29;20035;-76
2024/03/31 09:27:00;;;;;;;95.45;15.85;;;15.70;99.90;;;;;;4948646;29;20035;-76
2024/03/31 09:29:27;;;;;;;92.05;14.75;;;15.80;99.90;;;;;;4949134;29;20062;-76
2024/03/31 09:32:07;;;;;;;100.20;15.15;;;15.90;99.90;;;;;;4948871;28;20023;-75
2024/03/31 09:34:36;;;;;;;94.97;14.45;;;15.90;99.90;;;;;;4950888;29;20427;-76
2024/03/31 09:37:02;;;;;;;108.45;17.95;;;16.00;99.90;;;;;;4952839;29;20015;-76
2024/03/31 09:39:28;;;;;;;104.50;15.73;;;16.00;99.90;;;;;;4971060;28;20499;-76
2024/03/31 09:41:55;;;;;;;114.47;17.83;;;16.10;99.90;;;;;;4945290;29;20214;-76
2024/03/31 09:44:21;;;;;;;107.07;16.92;;;16.20;99.90;;;;;;4946763;29;20031;-76
2024/03/31 09:46:48;;;;;;;91.85;15.15;;;16.30;99.90;;;;;;4950801;28;20239;-76
2024/03/31 09:49:21;;;;;;;103.63;16.08;;;16.30;99.90;;;;;;4951265;29;20043;-77
2024/03/31 09:51:51;;;;;;;114.53;19.23;;;16.30;99.90;;;;;;4947528;29;20432;-76
2024/03/31 09:54:23;;;;;;;99.60;17.25;;;16.40;99.90;;;;;;4951146;29;20035;-77
2024/03/31 09:56:56;;;;;;;;;;;16.40;99.90;;;;;;4949678;29;20027;-76
2024/03/31 09:59:25;;;;;;;115.28;16.73;;;16.50;99.90;;;;;;4951864;29;20274;-77
2024/03/31 10:01:55;;;;;;;104.82;16.52;;;16.50;99.90;;;;;;4950966;28;20491;-78
2024/03/31 10:04:36;;;;;;;108.88;19.73;;;16.50;99.90;;;;;;4954657;29;20111;-77
2024/03/31 10:07:03;;;;;;;105.33;18.40;;;16.50;99.90;;;;;;4952242;29;20038;-76
2024/03/31 10:09:30;;;;;;;100.75;16.40;;;16.50;99.90;;;;;;4952140;29;20558;-76
2024/03/31 10:11:57;;;;;;;97.95;20.92;;;16.60;99.90;;;;;;4952189;29;20098;-76
2024/03/31 10:14:25;;;;;;;86.18;15.38;;;16.50;99.90;;;;;;4955663;29;20028;-76
2024/03/31 10:16:52;;;;;;;105.00;16.75;;;16.60;84.90;;;;;;4955590;29;20023;-77
2024/03/31 10:19:19;;;;;;;106.90;20.13;;;16.50;99.90;;;;;;4954048;29;20735;-76
2024/03/31 10:21:46;;;;;;;106.22;16.83;;;16.50;92.60;;;;;;4953973;29;20479;-76
2024/03/31 10:24:13;;;;;;;95.15;15.23;;;16.50;91.80;;;;;;4962033;28;20114;-76
2024/03/31 10:26:39;;;;;;;101.75;14.88;;;16.50;99.90;;;;;;4953582;29;20031;-76
2024/03/31 10:29:08;;;;;;;95.30;14.27;;;16.50;99.90;;;;;;4953636;29;20038;-76
2024/03/31 10:31:34;;;;;;;104.22;22.40;;;16.40;99.90;;;;;;4951976;28;20162;-76
2024/03/31 10:34:00;;;;;;;134.35;24.67;;;16.40;99.90;;;;;;4953890;29;20051;-76
2024/03/31 10:36:30;;;;;;;113.32;26.50;;;16.30;99.90;;;;;;4953717;29;20054;-76
2024/03/31 10:38:56;;;;;;;215.50;87.43;;;16.20;99.90;;;;;;4953007;29;20011;-76
2024/03/31 10:41:22;;;;;;;124.47;29.63;;;16.20;99.90;;;;;;4951970;28;20104;-76
2024/03/31 10:43:49;;;;;;;99.07;16.58;;;16.10;99.90;;;;;;4953313;29;20038;-76
2024/03/31 10:46:18;;;;;;;99.85;16.33;;;16.10;99.90;;;;;;4954747;29;20034;-76
2024/03/31 10:48:56;;;;;;;100.30;16.92;;;16.00;99.90;;;;;;4952117;29;20023;-76
2024/03/31 10:51:26;;;;;;;105.18;16.15;;;16.00;99.90;;;;;;4951859;29;20062;-76
2024/03/31 10:53:53;;;;;;;90.35;15.60;;;15.90;99.90;;;;;;4936049;29;20668;-76
2024/03/31 10:56:28;;;;;;;91.50;15.20;;;15.80;99.90;;;;;;4952379;28;20027;-76
2024/03/31 10:59:07;;;;;;;116.07;25.30;;;15.80;99.90;;;;;;4954652;28;20027;-76
2024/03/31 11:01:37;;;;;;;141.25;38.25;;;15.70;99.90;;;;;;4951007;29;20042;-76
2024/03/31 11:04:22;;;;;;;111.20;28.13;;;15.70;99.90;;;;;;4952302;28;20513;-76
2024/03/31 11:06:49;;;;;;;110.63;17.55;;;15.70;99.90;;;;;;4945036;29;20208;-76
2024/03/31 11:09:15;;;;;;;87.63;15.85;;;15.60;99.90;;;;;;4946224;29;20035;-76
2024/03/31 11:11:42;;;;;;;99.68;16.83;;;15.60;99.90;;;;;;4947873;29;20624;-76
2024/03/31 11:14:09;;;;;;;81.05;15.63;;;15.50;99.90;;;;;;4949809;29;20023;-76
2024/03/31 11:16:35;;;;;;;96.03;17.75;;;15.50;99.90;;;;;;4947704;29;20038;-76
2024/03/31 11:19:02;;;;;;;91.47;17.10;;;15.50;99.90;;;;;;4951628;29;20106;-76
2024/03/31 11:21:33;;;;;;;103.00;16.27;;;15.50;99.90;;;;;;4948897;29;20025;-76
2024/03/31 11:24:03;;;;;;;104.25;16.48;;;15.50;99.90;;;;;;4949076;29;20035;-76
2024/03/31 11:26:29;;;;;;;82.10;16.13;;;15.40;99.90;;;;;;4949354;29;20543;-77
2024/03/31 11:28:56;;;;;;;90.60;16.02;;;15.40;99.90;;;;;;4949494;29;20038;-76
2024/03/31 11:31:22;;;;;;;101.53;16.58;;;15.40;99.90;;;;;;4949309;29;20106;-77
2024/03/31 11:33:48;;;;;;;101.40;18.10;;;15.50;99.90;;;;;;4947160;29;20722;-76
2024/03/31 11:36:16;;;;;;;101.38;14.63;;;15.50;99.90;;;;;;4947998;29;20023;-76
2024/03/31 11:38:43;;;;;;;98.15;17.10;;;15.60;99.90;;;;;;4946626;29;20031;-76
2024/03/31 11:41:09;;;;;;;96.50;17.40;;;15.60;99.90;;;;;;4946459;29;20035;-76
2024/03/31 11:43:36;;;;;;;79.05;16.60;;;15.60;99.90;;;;;;4949814;29;20118;-76
2024/03/31 11:46:02;;;;;;;92.10;16.40;;;15.70;99.90;;;;;;4950195;29;20039;-76
2024/03/31 11:48:28;;;;;;;102.97;15.65;;;15.70;99.90;;;;;;4951214;29;20398;-76
2024/03/31 11:50:54;;;;;;;89.35;14.82;;;15.70;99.90;;;;;;4950835;29;20085;-76
2024/03/31 11:53:20;;;;;;;95.47;14.57;;;15.70;99.90;;;;;;4968070;28;20486;-76
2024/03/31 11:55:46;;;;;;;92.82;16.08;;;15.70;99.90;;;;;;4951036;29;20074;-76
2024/03/31 11:58:11;;;;;;;89.10;14.40;;;15.70;99.90;;;;;;4945935;28;20042;-76
2024/03/31 12:00:37;;;;;;;80.05;15.07;;;15.80;99.90;;;;;;4947299;28;20083;-75
2024/03/31 12:03:07;;;;;;;94.55;17.40;;;15.80;99.90;;;;;;4947846;29;20046;-76
2024/03/31 12:05:36;;;;;;;101.07;16.15;;;15.90;99.90;;;;;;4946586;29;20218;-76
2024/03/31 12:08:04;;;;;;;84.00;14.70;;;16.10;99.90;;;;;;4946656;29;20117;-76
2024/03/31 12:10:29;;;;;;;82.20;14.00;;;16.10;99.90;;;;;;4948263;28;20032;-76
2024/03/31 12:12:55;;;;;;;81.13;13.15;;;16.30;99.90;;;;;;4960372;28;20391;-76
2024/03/31 12:15:22;;;;;;;72.20;13.13;;;16.40;99.90;;;;;;4946739;29;20024;-76
2024/03/31 12:17:58;;;;;;;84.72;13.90;;;16.60;99.90;;;;;;4948207;28;20834;-76
2024/03/31 12:20:24;;;;;;;72.88;12.60;;;16.80;99.90;;;;;;4947808;29;20399;-76
2024/03/31 12:22:50;;;;;;;73.72;13.05;;;17.00;99.90;;;;;;4948589;29;20033;-76
2024/03/31 12:25:17;;;;;;;80.18;12.13;;;17.00;99.90;;;;;;4943480;29;20046;-76
2024/03/31 12:27:43;;;;;;;73.47;13.13;;;17.00;99.90;;;;;;4948665;29;20035;-76